Airfield :
LOGIN :

Register | Disclaimer

   EN    FR    IT 

 










Legend :    VFR   Marginal VFR   IFR   Intensive IFR   Very Intensive IFR
Visi :
Ceiling :
>= 8 km
>= 3000ft
5 to 8 km
1000 to 3000 ft
1500m to 5 km
500 to 1000 ft
800 to 1500m
200 to 500 ft
< 800m
< 200 ft
Symbols :   Thunderstorms  Fog  Heavy snow  Heavy precipitations  Wind > 20 kt
SIGMETs :     Misc.  Thunderstorms  Icing  Turbulence  Mountain Waves  Volcanic Ashes







- Airport Elevation : 461 ft
- IATA code : WIE


ETOU - Wiesbaden Army

CURRENT METAR :
  • 190056Z AUTO 00000KT 9999 BKN100 BKN140 19/13 A2993 RMK AO2 SLP131 T01870129 $

EXPIRED METARs :
  • 182356Z AUTO 28004KT 9999 BKN095 OVC170 19/13 A2993 RMK AO2 SLP132 60000 T01930125 10245 20189 51007 $
  • 182256Z AUTO 33003KT 9999 OVC080 20/12 A2993 RMK AO2 SLP131 T01990124 402820133 $

TAF TAF ETOU
Valid from the 18 at 19:00 until the 20 at 01:00 UTC


181902Z 1819/2001 VRB06KT 9999 SCT060 BKN080 QNH2986INS
BECMG 1906/1907 20009KT 8000 -SHRA BKN030 OVC040 QNH2994INS
BECMG 1911/1912 19009KT 9999 NSW FEW040 SCT060 QNH2992INS TX25/1914Z TN15/1903Z
No reported NOTAMs for that airfield.



MET'MAP, your aeronautical weather chart ! - Copyright ORBIFLY December 2007 - Disclaimer

ORBIFLY MET'MAP TEAM :

Programming & Development : Alexandra Zaïnal
Concept & Development : Baudouin d'Aumeries
Co-Development & Prog : Marc-Olivier Méhu
Technical & hardware support : Manuel Goepfert

Contact : metmap@orbifly.com




SOURCES & CREDITS :

   NOAA